createdAt,value
2022-09-11T00:01:27.789Z,1.20
2022-09-11T00:13:28.277Z,1.10
2022-09-11T00:25:28.735Z,1.10
2022-09-11T00:37:29.175Z,1.40
2022-09-11T00:49:29.660Z,1.00
2022-09-11T01:01:30.106Z,1.10
2022-09-11T01:13:30.583Z,1.10
2022-09-11T01:25:31.026Z,1.20
2022-09-11T01:37:31.472Z,1.20
2022-09-11T01:49:31.887Z,1.00
2022-09-11T02:01:33.376Z,1.10
2022-09-11T02:13:32.823Z,1.00
2022-09-11T02:25:33.298Z,0.90
2022-09-11T02:37:33.715Z,1.40
2022-09-11T02:49:34.191Z,0.90
2022-09-11T03:01:34.651Z,1.10
2022-09-11T03:13:35.068Z,1.20
2022-09-11T03:25:35.517Z,1.30
2022-09-11T03:37:36.018Z,1.10
2022-09-11T03:49:36.463Z,1.20
2022-09-11T04:01:36.892Z,1.30
2022-09-11T04:13:37.344Z,1.20
2022-09-11T04:25:37.864Z,1.30
2022-09-11T04:37:38.238Z,1.30
2022-09-11T04:49:38.687Z,1.30
2022-09-11T05:01:39.174Z,1.40
2022-09-11T05:13:39.685Z,1.50
2022-09-11T05:25:40.096Z,1.70
2022-09-11T05:37:40.552Z,1.50
2022-09-11T05:49:41.000Z,1.60
2022-09-11T06:01:41.517Z,1.30
2022-09-11T06:13:42.016Z,1.20
2022-09-11T06:25:42.363Z,1.10
2022-09-11T06:37:42.780Z,1.00
2022-09-11T06:49:43.302Z,1.30
2022-09-11T07:01:43.806Z,1.20
2022-09-11T07:13:44.248Z,1.10
2022-09-11T07:25:44.635Z,1.00
2022-09-11T07:37:50.205Z,0.80
2022-09-11T07:49:45.520Z,0.50
2022-09-11T08:01:46.010Z,0.50
2022-09-11T08:13:46.455Z,0.30
2022-09-11T08:25:46.920Z,0.40
2022-09-11T08:37:49.638Z,0.40
2022-09-11T08:49:47.818Z,0.50
2022-09-11T09:01:48.349Z,0.50
2022-09-11T09:13:48.919Z,0.50
2022-09-11T09:25:49.182Z,0.40
2022-09-11T09:37:49.641Z,0.40
2022-09-11T09:49:50.080Z,0.30
2022-09-11T10:01:50.650Z,0.30
2022-09-11T10:13:51.007Z,0.30
2022-09-11T10:25:51.456Z,0.30
2022-09-11T10:37:51.891Z,0.30
2022-09-11T10:49:52.387Z,0.20
2022-09-11T11:01:52.906Z,0.40
2022-09-11T11:13:53.278Z,0.50
2022-09-11T11:25:53.748Z,0.70
2022-09-11T11:37:54.193Z,0.30
2022-09-11T11:49:54.638Z,0.50
2022-09-11T12:01:55.145Z,0.50
2022-09-11T12:13:55.511Z,0.90
2022-09-11T12:25:56.042Z,0.50
2022-09-11T12:37:56.471Z,0.50
2022-09-11T12:49:56.915Z,0.30
2022-09-11T13:01:57.467Z,0.30
2022-09-11T13:13:57.823Z,0.20
2022-09-11T13:25:58.274Z,0.20
2022-09-11T13:37:58.722Z,0.30
2022-09-11T13:49:59.215Z,0.30
2022-09-11T14:01:59.695Z,0.40
2022-09-11T14:14:00.108Z,0.40
2022-09-11T14:26:00.584Z,0.20
2022-09-11T14:38:01.010Z,0.20
2022-09-11T14:50:01.499Z,0.30
2022-09-11T15:02:01.909Z,0.20
2022-09-11T15:14:16.343Z,0.20
2022-09-11T15:26:02.841Z,0.20
2022-09-11T15:38:03.319Z,0.20
2022-09-11T15:50:03.793Z,0.20
2022-09-11T16:02:04.271Z,0.30
2022-09-11T16:14:04.647Z,0.20
2022-09-11T16:26:05.169Z,0.50
2022-09-11T16:38:05.581Z,3.20
2022-09-11T16:50:08.122Z,0.40
2022-09-11T17:02:06.548Z,0.40
2022-09-11T17:14:06.993Z,0.50
2022-09-11T17:26:07.411Z,0.50
2022-09-11T17:38:07.849Z,0.60
2022-09-11T17:50:08.321Z,1.00
2022-09-11T18:02:08.841Z,0.60
2022-09-11T18:14:09.209Z,1.60
2022-09-11T18:26:09.832Z,1.40
2022-09-11T18:38:10.112Z,1.30
2022-09-11T18:50:10.585Z,4.20
2022-09-11T19:02:11.174Z,4.20
2022-09-11T19:14:11.487Z,3.50
2022-09-11T19:26:11.916Z,2.00
2022-09-11T19:38:12.420Z,2.70
2022-09-11T19:50:12.803Z,5.20
2022-09-11T20:02:13.488Z,5.10
2022-09-11T20:14:13.726Z,4.70
2022-09-11T20:26:17.207Z,5.20
2022-09-11T20:38:14.658Z,3.10
2022-09-11T20:50:15.113Z,3.10
2022-09-11T21:02:15.608Z,2.30
2022-09-11T21:14:16.020Z,1.90
2022-09-11T21:26:16.452Z,2.30
2022-09-11T21:38:16.942Z,2.10
2022-09-11T21:50:17.413Z,1.90
2022-09-11T22:02:17.943Z,2.20
2022-09-11T22:14:18.296Z,2.30
2022-09-11T22:26:18.753Z,2.50
2022-09-11T22:38:19.196Z,2.80
2022-09-11T22:50:19.684Z,2.40
2022-09-11T23:02:20.197Z,2.40
2022-09-11T23:14:20.580Z,2.80
2022-09-11T23:26:20.973Z,2.80
2022-09-11T23:38:21.514Z,3.00
2022-09-11T23:50:22.427Z,3.30
